^^
Station Historical Data
 
Daily Summary for April 18, 2014 Units:  English    Metric   Both
« Previous Day
Next Day »
Daily Weekly Monthly Yearly Custom
  Current: High: Low: Average:
Temperature: 42.9 °F 42.9 °F 32.3 °F 37.1 °F
Dew Point: 34.5 °F 34.8 °F 28.9 °F 31.9 °F
Humidity: 72% 88% 72% 81%
Wind Speed: 4.6mph 10.4mph 1.2mph 3.3mph
Wind Gust: 4.6mph 10.4mph - -
WindSE - - SE
Pressure: 30.43 in 30.56 in 30.43 in -
Precipitation: 0.00 in      
Historical Graphs
 
 
Tabular Data for April 18, 2014
Time Temperature Dew Point Pressure Wind Wind Speed Wind Gust Humidity Rainfall Rate (Hourly)
00:01 41.8 °F 34.8 °F 30.53 in South 6.9 mph 6.9 mph 76% 0.00 in
00:02 41.8 °F 34.8 °F 30.52 in South 6.9 mph 6.9 mph 76% 0.00 in
00:07 41.6 °F 34.6 °F 30.53 in SSE 10.4 mph 10.4 mph 76% 0.00 in
00:08 41.5 °F 34.5 °F 30.53 in SSE 5.8 mph 5.8 mph 76% 0.00 in
00:13 41.5 °F 34.5 °F 30.54 in SSW 7.0 mph 7.0 mph 76% 0.00 in
00:18 41.4 °F 34.4 °F 30.55 in SSW 4.6 mph 4.6 mph 76% 0.00 in
00:23 41.3 °F 34.3 °F 30.55 in South 9.2 mph 9.2 mph 76% 0.00 in
00:28 41.3 °F 34.3 °F 30.56 in SSE 8.1 mph 8.1 mph 76% 0.00 in
00:33 41.2 °F 34.5 °F 30.55 in SSE 5.8 mph 5.8 mph 77% 0.00 in
00:38 41.1 °F 34.4 °F 30.55 in SSE 4.6 mph 4.6 mph 77% 0.00 in
00:43 41.0 °F 34.3 °F 30.55 in SE 3.5 mph 3.5 mph 77% 0.00 in
00:48 40.8 °F 34.1 °F 30.54 in SSE 7.0 mph 7.0 mph 77% 0.00 in
00:53 40.7 °F 34.4 °F 30.54 in SSE 1.2 mph 1.2 mph 78% 0.00 in
00:58 40.5 °F 34.2 °F 30.54 in SE 2.3 mph 2.3 mph 78% 0.00 in
01:03 40.4 °F 34.1 °F 30.53 in Calm   0.1 mph 78% 0.00 in
01:08 40.3 °F 34.0 °F 30.53 in SE 3.5 mph 3.5 mph 78% 0.00 in
01:13 40.2 °F 34.2 °F 30.52 in SE 6.0 mph 6.0 mph 79% 0.00 in
01:18 40.1 °F 34.1 °F 30.52 in SSE 3.5 mph 3.5 mph 79% 0.00 in
01:23 40.0 °F 33.7 °F 30.52 in SE 1.2 mph   78% 0.00 in
01:28 39.8 °F 33.5 °F 30.51 in SE 1.2 mph   78% 0.00 in
01:33 39.7 °F 33.7 °F 30.51 in Calm     79% 0.00 in
01:38 39.5 °F 33.5 °F 30.51 in Calm     79% 0.00 in
01:43 39.3 °F 33.3 °F 30.50 in SE 1.2 mph   79% 0.00 in
01:48 39.1 °F 33.1 °F 30.49 in SE 2.0 mph 2.0 mph 79% 0.00 in
01:53 38.9 °F 33.3 °F 30.49 in SE 1.2 mph 1.2 mph 80% 0.00 in
01:58 38.8 °F 33.2 °F 30.49 in SE 3.5 mph 4.7 mph 80% 0.00 in
02:03 38.7 °F 33.1 °F 30.48 in SSE 2.3 mph 2.3 mph 80% 0.00 in
02:08 38.6 °F 33.3 °F 30.49 in East 4.6 mph 4.6 mph 81% 0.00 in
02:13 38.6 °F 33.3 °F 30.48 in East 1.2 mph 1.2 mph 81% 0.00 in
02:18 38.6 °F 33.3 °F 30.47 in East 2.3 mph   81% 0.00 in
02:23 38.5 °F 33.2 °F 30.47 in East 1.2 mph 1.2 mph 81% 0.00 in
02:28 38.3 °F 33.0 °F 30.47 in Calm     81% 0.00 in
02:33 38.1 °F 32.8 °F 30.47 in Calm     81% 0.00 in
02:38 37.9 °F 32.6 °F 30.46 in East 1.2 mph 1.2 mph 81% 0.00 in
02:43 37.6 °F 32.6 °F 30.45 in East 1.2 mph   82% 0.00 in
02:48 37.5 °F 32.5 °F 30.46 in Calm     82% 0.00 in
02:53 37.3 °F 32.3 °F 30.46 in East 2.3 mph 2.3 mph 82% 0.00 in
02:58 37.1 °F 32.1 °F 30.46 in East 1.2 mph 1.2 mph 82% 0.00 in
03:03 36.9 °F 31.9 °F 30.45 in Calm     82% 0.00 in
03:08 36.6 °F 31.9 °F 30.45 in Calm     83% 0.00 in
03:13 36.5 °F 31.8 °F 30.45 in East 1.2 mph   83% 0.00 in
03:18 36.4 °F 31.7 °F 30.45 in Calm     83% 0.00 in
03:23 36.3 °F 31.6 °F 30.45 in East 1.2 mph 1.2 mph 83% 0.00 in
03:28 36.1 °F 31.4 °F 30.45 in East 1.2 mph 1.2 mph 83% 0.00 in
03:33 36.0 °F 31.3 °F 30.45 in East 1.2 mph   83% 0.00 in
03:38 35.9 °F 31.2 °F 30.45 in East 1.2 mph 1.2 mph 83% 0.00 in
03:43 35.7 °F 31.0 °F 30.45 in Calm     83% 0.00 in
03:48 35.5 °F 30.8 °F 30.45 in East 2.3 mph   83% 0.00 in
03:53 35.3 °F 30.9 °F 30.45 in Calm     84% 0.00 in
03:58 35.2 °F 30.9 °F 30.46 in East 1.2 mph   84% 0.00 in
04:03 35.0 °F 30.7 °F 30.46 in East 1.2 mph 1.2 mph 84% 0.00 in
04:08 34.8 °F 30.5 °F 30.47 in East 2.3 mph 2.3 mph 84% 0.00 in
04:13 34.7 °F 30.4 °F 30.47 in Calm     84% 0.00 in
04:18 34.5 °F 30.2 °F 30.47 in Calm     84% 0.00 in
04:23 34.4 °F 30.1 °F 30.46 in East 3.5 mph 3.5 mph 84% 0.00 in
04:28 34.4 °F 30.1 °F 30.46 in Calm     84% 0.00 in
04:33 34.4 °F 30.1 °F 30.46 in Calm     84% 0.00 in
04:38 34.4 °F 30.1 °F 30.46 in Calm     84% 0.00 in
04:43 34.4 °F 30.1 °F 30.46 in Calm     84% 0.00 in
04:48 34.3 °F 30.0 °F 30.46 in Calm   0.3 mph 84% 0.00 in
04:53 34.3 °F 30.0 °F 30.47 in East 3.5 mph 3.5 mph 84% 0.00 in
04:58 34.4 °F 30.1 °F 30.46 in East 1.2 mph   84% 0.00 in
05:03 34.4 °F 30.1 °F 30.46 in East 3.5 mph   84% 0.00 in
05:08 34.4 °F 30.1 °F 30.46 in Calm     84% 0.00 in
05:13 34.4 °F 30.1 °F 30.45 in East 1.2 mph 1.2 mph 84% 0.00 in
05:18 34.4 °F 30.1 °F 30.44 in East 2.3 mph 2.3 mph 84% 0.00 in
05:23 34.2 °F 29.9 °F 30.44 in Calm     84% 0.00 in
05:28 34.1 °F 29.8 °F 30.45 in East 2.0 mph 2.0 mph 84% 0.00 in
05:33 33.9 °F 29.6 °F 30.45 in East 2.3 mph   84% 0.00 in
05:38 33.8 °F 29.8 °F 30.44 in East 2.3 mph 2.3 mph 85% 0.00 in
05:43 33.8 °F 29.8 °F 30.45 in East 3.5 mph 3.5 mph 85% 0.00 in
05:48 33.8 °F 29.8 °F 30.45 in East 2.3 mph 2.3 mph 85% 0.00 in
05:53 33.8 °F 29.8 °F 30.45 in East 1.2 mph   85% 0.00 in
05:58 33.7 °F 29.7 °F 30.45 in East 1.2 mph 1.2 mph 85% 0.00 in
06:03 33.6 °F 29.6 °F 30.46 in East 1.2 mph 1.2 mph 85% 0.00 in
06:08 33.4 °F 29.4 °F 30.46 in Calm     85% 0.00 in
06:13 33.3 °F 29.3 °F 30.46 in Calm     85% 0.00 in
06:18 33.2 °F 29.2 °F 30.46 in Calm     85% 0.00 in
06:23 33.0 °F 29.3 °F 30.46 in Calm   0.1 mph 86% 0.00 in
06:28 32.9 °F 29.2 °F 30.47 in East 1.2 mph   86% 0.00 in
06:33 32.8 °F 29.1 °F 30.47 in Calm     86% 0.00 in
06:38 32.7 °F 29.0 °F 30.47 in Calm     86% 0.00 in
06:43 32.6 °F 28.9 °F 30.47 in Calm     86% 0.00 in
06:48 32.5 °F 29.1 °F 30.47 in Calm     87% 0.00 in
06:53 32.4 °F 29.0 °F 30.47 in Calm     87% 0.00 in
06:58 32.3 °F 28.9 °F 30.46 in Calm     87% 0.00 in
07:03 32.3 °F 29.1 °F 30.47 in Calm     88% 0.00 in
07:08 32.4 °F 29.2 °F 30.46 in East 1.2 mph 1.2 mph 88% 0.00 in
07:13 32.5 °F 29.3 °F 30.46 in Calm   0.1 mph 88% 0.00 in
07:18 32.7 °F 29.5 °F 30.46 in Calm     88% 0.00 in
07:23 32.9 °F 29.7 °F 30.46 in Calm     88% 0.00 in
07:28 33.3 °F 30.1 °F 30.46 in Calm   0.6 mph 88% 0.00 in
07:33 33.7 °F 30.2 °F 30.46 in East 1.2 mph   87% 0.00 in
07:38 34.2 °F 30.7 °F 30.46 in North 1.2 mph   87% 0.00 in
07:43 34.4 °F 30.6 °F 30.46 in North 1.2 mph   86% 0.00 in
07:48 35.2 °F 31.4 °F 30.46 in North 1.2 mph 1.2 mph 86% 0.00 in
07:53 35.7 °F 31.6 °F 30.46 in East 1.2 mph 1.2 mph 85% 0.00 in
07:58 36.2 °F 31.8 °F 30.46 in East 2.3 mph 2.3 mph 84% 0.00 in
08:03 36.5 °F 32.1 °F 30.46 in East 1.2 mph   84% 0.00 in
08:08 37.1 °F 32.1 °F 30.46 in SSE 4.6 mph 4.6 mph 82% 0.00 in
08:13 37.3 °F 31.7 °F 30.46 in East 5.8 mph 5.8 mph 80% 0.00 in
08:18 37.3 °F 32.0 °F 30.45 in South 5.8 mph 5.8 mph 81% 0.00 in
08:23 37.3 °F 31.7 °F 30.45 in SE 4.6 mph 4.6 mph 80% 0.00 in
08:28 37.3 °F 31.7 °F 30.45 in SE 4.6 mph 4.6 mph 80% 0.00 in
08:33 37.6 °F 32.3 °F 30.45 in SSE 5.0 mph 5.0 mph 81% 0.00 in
08:38 37.7 °F 32.1 °F 30.45 in ESE 2.3 mph 2.3 mph 80% 0.00 in
08:43 37.8 °F 32.2 °F 30.45 in SE 2.3 mph   80% 0.00 in
08:48 38.2 °F 32.3 °F 30.45 in SSE 4.6 mph 4.6 mph 79% 0.00 in
08:53 38.3 °F 32.0 °F 30.45 in ESE 4.6 mph 4.6 mph 78% 0.00 in
08:58 38.5 °F 32.6 °F 30.45 in ESE 4.6 mph 4.6 mph 79% 0.00 in
09:03 38.7 °F 32.7 °F 30.44 in ESE 3.5 mph 3.5 mph 79% 0.00 in
09:08 38.7 °F 32.7 °F 30.44 in East 4.6 mph 4.6 mph 79% 0.00 in
09:13 39.1 °F 33.1 °F 30.44 in SSE 3.5 mph 3.5 mph 79% 0.00 in
09:18 39.5 °F 32.9 °F 30.44 in ENE 5.8 mph 5.8 mph 77% 0.00 in
09:23 39.6 °F 32.7 °F 30.44 in ESE 3.5 mph 3.5 mph 76% 0.00 in
09:28 39.8 °F 32.8 °F 30.44 in East 4.0 mph 4.0 mph 76% 0.00 in
09:33 39.8 °F 33.5 °F 30.44 in SSE 5.8 mph 5.8 mph 78% 0.00 in
09:38 40.2 °F 33.6 °F 30.43 in SE 5.8 mph 5.8 mph 77% 0.00 in
09:43 40.4 °F 33.4 °F 30.43 in SE 5.8 mph 5.8 mph 76% 0.00 in
09:48 40.6 °F 33.6 °F 30.43 in SSE 5.8 mph 5.8 mph 76% 0.00 in
09:53 40.9 °F 33.9 °F 30.43 in SE 6.9 mph 6.9 mph 76% 0.00 in
09:58 41.1 °F 33.1 °F 30.43 in ESE 3.5 mph 3.5 mph 73% 0.00 in
10:03 40.9 °F 33.2 °F 30.43 in East 4.6 mph 4.6 mph 74% 0.00 in
10:08 41.0 °F 33.7 °F 30.43 in SSE 2.3 mph 2.3 mph 75% 0.00 in
10:13 41.2 °F 33.9 °F 30.43 in ESE 3.5 mph 3.5 mph 75% 0.00 in
10:18 41.6 °F 34.3 °F 30.43 in South 3.5 mph 3.5 mph 75% 0.00 in
10:23 41.9 °F 34.2 °F 30.43 in South 3.0 mph 3.0 mph 74% 0.00 in
10:28 42.4 °F 34.4 °F 30.43 in NNE 1.2 mph   73% 0.00 in
10:33 42.9 °F 34.5 °F 30.43 in SE 4.6 mph 4.6 mph 72% 0.00 in
Mechanicsburg,PA USA
Compliments of Weather Underground